Time;durP1;ratioP1;P1;durP2;ratioP2;P2;SDS_P1;SDS_P2;PMS_P1;PMS_P2;Temp;Humidity;BMP_temperature;BMP_pressure;BME280_temperature;BME280_humidity;BME280_pressure;Samples;Min_cycle;Max_cycle;Signal;HPM_P1;HPM_P2
2023/10/25 00:00:43;;;;;;;11.18;5.78;;;;;;;;;;4897145;29;20205;-51
2023/10/25 00:03:29;;;;;;;8.82;5.38;;;;;;;;;;4897380;29;20229;-51
2023/10/25 00:05:56;;;;;;;16.48;6.18;;;;;;;;;;4897053;29;20778;-51
2023/10/25 00:08:23;;;;;;;7.93;5.40;;;;;;;;;;4897076;29;20321;-51
2023/10/25 00:10:50;;;;;;;12.32;6.00;;;;;;;;;;4897135;29;20221;-53
2023/10/25 00:13:17;;;;;;;9.95;4.70;;;;;;;;;;4896971;29;20234;-54
2023/10/25 00:15:44;;;;;;;10.68;5.03;;;;;;;;;;4897144;29;20272;-50
2023/10/25 00:18:11;;;;;;;10.38;5.80;;;;;;;;;;4896886;29;20214;-51
2023/10/25 00:20:39;;;;;;;10.55;6.07;;;;;;;;;;4896975;29;20213;-50
2023/10/25 00:23:06;;;;;;;8.35;5.45;;;;;;;;;;4896850;29;20696;-50
2023/10/25 00:25:35;;;;;;;7.60;5.32;;;;;;;;;;4896781;29;20212;-54
2023/10/25 00:28:02;;;;;;;11.48;5.32;;;;;;;;;;4896760;29;20205;-51
2023/10/25 00:30:29;;;;;;;10.85;5.47;;;;;;;;;;4897214;29;20218;-53
2023/10/25 00:32:56;;;;;;;10.00;5.68;;;;;;;;;;4896623;29;20555;-54
2023/10/25 00:35:23;;;;;;;7.82;4.80;;;;;;;;;;4895786;29;20217;-52
2023/10/25 00:37:50;;;;;;;10.35;5.22;;;;;;;;;;4896736;29;20292;-52
2023/10/25 00:40:18;;;;;;;8.65;5.60;;;;;;;;;;4895473;29;20269;-52
2023/10/25 00:42:45;;;;;;;9.10;5.65;;;;;;;;;;4896673;29;20209;-51
2023/10/25 00:45:13;;;;;;;9.57;5.15;;;;;;;;;;4896868;29;20210;-53
2023/10/25 00:47:41;;;;;;;11.75;5.63;;;;;;;;;;4896672;29;20300;-53
2023/10/25 00:50:17;;;;;;;10.63;5.78;;;;;;;;;;4895315;29;20753;-54
2023/10/25 00:52:44;;;;;;;11.43;5.32;;;;;;;;;;4896547;29;20240;-53
2023/10/25 00:55:12;;;;;;;9.88;5.38;;;;;;;;;;4896416;29;20205;-52
2023/10/25 00:57:39;;;;;;;8.15;4.60;;;;;;;;;;4895541;29;20232;-53
2023/10/25 01:00:08;;;;;;;11.68;5.63;;;;;;;;;;4900296;29;20213;-52
2023/10/25 01:02:36;;;;;;;12.40;5.78;;;;;;;;;;4896882;29;20236;-55
2023/10/25 01:05:04;;;;;;;8.68;5.68;;;;;;;;;;4899209;29;20201;-52
2023/10/25 01:07:31;;;;;;;11.90;5.32;;;;;;;;;;4900301;29;20209;-51
2023/10/25 01:09:58;;;;;;;8.07;5.00;;;;;;;;;;4900370;29;20233;-51
2023/10/25 01:12:26;;;;;;;9.00;5.10;;;;;;;;;;4900467;29;20201;-54
2023/10/25 01:14:53;;;;;;;9.65;6.15;;;;;;;;;;4900264;29;20209;-55
2023/10/25 01:17:20;;;;;;;10.07;5.75;;;;;;;;;;4900308;29;20606;-52
2023/10/25 01:19:47;;;;;;;13.18;5.53;;;;;;;;;;4898857;29;20678;-54
2023/10/25 01:22:14;;;;;;;10.93;5.70;;;;;;;;;;4900041;29;20307;-50
2023/10/25 01:24:43;;;;;;;12.38;6.45;;;;;;;;;;4899008;29;20209;-56
2023/10/25 01:27:10;;;;;;;9.73;5.30;;;;;;;;;;4900024;29;20225;-54
2023/10/25 01:29:37;;;;;;;10.13;5.47;;;;;;;;;;4898627;29;20266;-54
2023/10/25 01:32:05;;;;;;;10.85;5.85;;;;;;;;;;4899863;29;20209;-51
2023/10/25 01:34:32;;;;;;;11.82;6.03;;;;;;;;;;4899928;29;20208;-54
2023/10/25 01:36:59;;;;;;;9.98;5.82;;;;;;;;;;4899797;29;20217;-53
2023/10/25 01:39:26;;;;;;;11.80;6.07;;;;;;;;;;4899937;29;20739;-53
2023/10/25 01:41:54;;;;;;;11.55;5.88;;;;;;;;;;4900055;29;20220;-52
2023/10/25 01:44:21;;;;;;;13.73;6.28;;;;;;;;;;4899719;29;20615;-51
2023/10/25 01:46:48;;;;;;;13.05;5.45;;;;;;;;;;4899453;29;20206;-53
2023/10/25 01:49:15;;;;;;;10.00;5.55;;;;;;;;;;4898338;29;20731;-53
2023/10/25 01:51:42;;;;;;;10.27;6.22;;;;;;;;;;4899718;29;20220;-51
2023/10/25 01:54:10;;;;;;;9.82;5.65;;;;;;;;;;4899709;29;20244;-56
2023/10/25 01:56:37;;;;;;;12.50;6.05;;;;;;;;;;4899490;29;20260;-53
2023/10/25 01:59:04;;;;;;;12.98;6.07;;;;;;;;;;4899532;29;20205;-54
2023/10/25 02:01:31;;;;;;;15.10;6.60;;;;;;;;;;4898079;29;20690;-52
2023/10/25 02:03:59;;;;;;;10.10;5.88;;;;;;;;;;4899219;29;20209;-51
2023/10/25 02:06:26;;;;;;;11.60;6.20;;;;;;;;;;4898154;29;20625;-54
2023/10/25 02:08:54;;;;;;;13.45;7.10;;;;;;;;;;4898118;29;20229;-52
2023/10/25 02:11:21;;;;;;;11.05;5.78;;;;;;;;;;4899201;29;20238;-53
2023/10/25 02:13:49;;;;;;;11.70;6.43;;;;;;;;;;4897934;29;20217;-53
2023/10/25 02:16:17;;;;;;;11.35;6.07;;;;;;;;;;4897945;29;20297;-51
2023/10/25 02:18:44;;;;;;;14.23;6.65;;;;;;;;;;4899608;29;20236;-51
2023/10/25 02:21:12;;;;;;;11.20;6.38;;;;;;;;;;4897999;29;20224;-54
2023/10/25 02:23:40;;;;;;;11.18;6.18;;;;;;;;;;4897953;29;20216;-55
2023/10/25 02:26:07;;;;;;;12.75;6.50;;;;;;;;;;4898861;29;20245;-55
2023/10/25 02:28:34;;;;;;;13.45;6.32;;;;;;;;;;4897769;29;20210;-50
2023/10/25 02:31:01;;;;;;;16.85;6.88;;;;;;;;;;4898604;29;20250;-53
2023/10/25 02:33:29;;;;;;;11.48;6.65;;;;;;;;;;4898938;29;20221;-53
2023/10/25 02:35:56;;;;;;;13.05;6.82;;;;;;;;;;4898821;29;20269;-53
2023/10/25 02:38:24;;;;;;;16.23;7.10;;;;;;;;;;4898790;29;20677;-54
2023/10/25 02:40:51;;;;;;;12.20;6.63;;;;;;;;;;4898547;29;20694;-53
2023/10/25 02:43:18;;;;;;;11.77;6.03;;;;;;;;;;4897474;29;20209;-55
2023/10/25 02:45:45;;;;;;;12.32;6.20;;;;;;;;;;4897615;29;20261;-52
2023/10/25 02:48:13;;;;;;;12.18;6.75;;;;;;;;;;4898574;29;20682;-50
2023/10/25 02:50:40;;;;;;;10.65;7.35;;;;;;;;;;4898453;29;20268;-54
2023/10/25 02:53:07;;;;;;;13.52;6.97;;;;;;;;;;4898440;29;20293;-52
2023/10/25 02:55:35;;;;;;;12.05;6.93;;;;;;;;;;4898397;29;20296;-52
2023/10/25 02:58:02;;;;;;;13.52;6.90;;;;;;;;;;4897245;29;20214;-51
2023/10/25 03:00:30;;;;;;;11.07;7.10;;;;;;;;;;4898472;29;20202;-52
2023/10/25 03:02:57;;;;;;;13.70;6.97;;;;;;;;;;4897305;29;20257;-53
2023/10/25 03:05:24;;;;;;;13.55;7.15;;;;;;;;;;4898358;29;20206;-53
2023/10/25 03:07:52;;;;;;;11.35;7.38;;;;;;;;;;4898295;29;20194;-54
2023/10/25 03:10:20;;;;;;;12.48;6.90;;;;;;;;;;4898086;29;20325;-57
2023/10/25 03:12:48;;;;;;;16.25;7.03;;;;;;;;;;4897132;29;20303;-53
2023/10/25 03:15:15;;;;;;;13.32;7.00;;;;;;;;;;4898148;29;20210;-53
2023/10/25 03:17:43;;;;;;;11.68;7.05;;;;;;;;;;4896935;29;20269;-50
2023/10/25 03:20:10;;;;;;;14.10;7.00;;;;;;;;;;4897015;29;20268;-55
2023/10/25 03:22:38;;;;;;;13.02;7.35;;;;;;;;;;4896280;29;20572;-54
2023/10/25 03:25:05;;;;;;;16.00;7.70;;;;;;;;;;4897861;29;20207;-53
2023/10/25 03:27:34;;;;;;;12.18;7.93;;;;;;;;;;4896662;29;20213;-54
2023/10/25 03:30:02;;;;;;;13.68;7.10;;;;;;;;;;4897571;29;20793;-54
2023/10/25 03:32:29;;;;;;;17.35;7.22;;;;;;;;;;4896687;29;20202;-55
2023/10/25 03:34:57;;;;;;;13.57;7.95;;;;;;;;;;4897546;29;20800;-54
2023/10/25 03:37:25;;;;;;;15.60;8.25;;;;;;;;;;4898132;29;20265;-57
2023/10/25 03:39:52;;;;;;;13.38;7.78;;;;;;;;;;4897528;29;20670;-51
2023/10/25 03:42:19;;;;;;;11.77;7.47;;;;;;;;;;4896462;29;20210;-57
2023/10/25 03:44:46;;;;;;;13.82;8.40;;;;;;;;;;4897432;29;20625;-56
2023/10/25 03:47:13;;;;;;;12.68;7.72;;;;;;;;;;4897413;29;20240;-53
2023/10/25 03:49:40;;;;;;;13.38;8.38;;;;;;;;;;4897585;29;20582;-52
2023/10/25 03:52:08;;;;;;;13.88;7.88;;;;;;;;;;4896067;29;20213;-53
2023/10/25 03:54:39;;;;;;;15.90;9.13;;;;;;;;;;4897064;29;20328;-55
2023/10/25 03:57:06;;;;;;;14.32;7.88;;;;;;;;;;4897608;29;20236;-51
2023/10/25 03:59:33;;;;;;;19.38;9.20;;;;;;;;;;4896391;29;20209;-54
2023/10/25 04:02:01;;;;;;;16.15;8.63;;;;;;;;;;4895530;29;20655;-51
2023/10/25 04:04:28;;;;;;;17.65;8.80;;;;;;;;;;4897411;29;20218;-51
2023/10/25 04:06:56;;;;;;;13.35;8.88;;;;;;;;;;4889514;29;20257;-53
2023/10/25 04:09:23;;;;;;;15.95;9.23;;;;;;;;;;4896320;29;20699;-55
2023/10/25 04:11:50;;;;;;;15.32;9.35;;;;;;;;;;4896557;29;20236;-53
2023/10/25 04:14:20;;;;;;;13.70;8.40;;;;;;;;;;4896525;29;20230;-54
2023/10/25 04:16:48;;;;;;;17.10;8.80;;;;;;;;;;4895286;29;20241;-53
2023/10/25 04:19:15;;;;;;;17.20;9.23;;;;;;;;;;4877881;29;20229;-58
2023/10/25 04:21:42;;;;;;;16.77;9.52;;;;;;;;;;4876970;29;20290;-54
2023/10/25 04:24:09;;;;;;;15.18;9.10;;;;;;;;;;4877710;29;20230;-57
2023/10/25 04:26:37;;;;;;;18.77;9.32;;;;;;;;;;4877961;29;20234;-54
2023/10/25 04:29:04;;;;;;;14.93;9.43;;;;;;;;;;4880115;29;20236;-55
2023/10/25 04:31:31;;;;;;;16.45;10.50;;;;;;;;;;4896113;29;20237;-55
2023/10/25 04:33:59;;;;;;;15.32;9.18;;;;;;;;;;4895355;29;20636;-52
2023/10/25 04:36:26;;;;;;;18.55;9.80;;;;;;;;;;4895797;29;20229;-56
2023/10/25 04:38:53;;;;;;;19.75;9.80;;;;;;;;;;4909514;29;20273;-55
2023/10/25 04:41:21;;;;;;;17.95;9.70;;;;;;;;;;4896299;29;20292;-53
2023/10/25 04:43:48;;;;;;;16.30;9.57;;;;;;;;;;4896376;29;20280;-57
2023/10/25 04:46:16;;;;;;;15.32;9.35;;;;;;;;;;4896082;29;20257;-55
2023/10/25 04:48:43;;;;;;;18.80;10.40;;;;;;;;;;4896163;29;20276;-55
2023/10/25 04:51:13;;;;;;;14.25;8.98;;;;;;;;;;4895341;29;20237;-55
2023/10/25 04:53:40;;;;;;;17.70;9.73;;;;;;;;;;4896093;29;20245;-56
2023/10/25 04:56:08;;;;;;;15.27;9.05;;;;;;;;;;4895905;29;20245;-54
2023/10/25 04:58:35;;;;;;;14.27;8.65;;;;;;;;;;4895980;29;20235;-56
2023/10/25 05:01:13;;;;;;;16.85;9.05;;;;;;;;;;4895743;29;20237;-54
2023/10/25 05:03:44;;;;;;;11.45;7.80;;;;;;;;;;4895975;29;20233;-56
2023/10/25 05:06:12;;;;;;;15.10;8.75;;;;;;;;;;4895574;29;20237;-54
2023/10/25 05:08:40;;;;;;;12.43;7.90;;;;;;;;;;4894702;29;20251;-57
2023/10/25 05:11:08;;;;;;;15.18;8.95;;;;;;;;;;4895667;29;20252;-55
2023/10/25 05:13:35;;;;;;;12.45;8.20;;;;;;;;;;4895973;29;20225;-55
2023/10/25 05:16:04;;;;;;;13.55;8.45;;;;;;;;;;4895521;29;20228;-56
2023/10/25 05:18:32;;;;;;;12.98;8.65;;;;;;;;;;4894945;29;20714;-55
2023/10/25 05:21:01;;;;;;;14.05;8.07;;;;;;;;;;4894042;29;20201;-56
2023/10/25 05:23:33;;;;;;;10.35;7.65;;;;;;;;;;4892696;29;20277;-51
2023/10/25 05:26:02;;;;;;;10.82;7.13;;;;;;;;;;4895601;29;20193;-55
2023/10/25 05:28:30;;;;;;;16.15;7.85;;;;;;;;;;4895851;29;20213;-55
2023/10/25 05:31:03;;;;;;;12.05;7.60;;;;;;;;;;4895646;29;20308;-56
2023/10/25 05:33:31;;;;;;;12.63;8.00;;;;;;;;;;4896104;29;20205;-54
2023/10/25 05:36:01;;;;;;;11.60;8.00;;;;;;;;;;4896061;29;20675;-56
2023/10/25 05:38:29;;;;;;;12.35;7.57;;;;;;;;;;4895838;29;20213;-54
2023/10/25 05:40:58;;;;;;;8.80;6.25;;;;;;;;;;4896104;29;20244;-54
2023/10/25 05:43:29;;;;;;;9.07;6.40;;;;;;;;;;4896035;29;20213;-55
2023/10/25 05:45:56;;;;;;;10.35;6.88;;;;;;;;;;4897942;29;20209;-53
2023/10/25 05:48:24;;;;;;;12.63;7.03;;;;;;;;;;4899251;29;20216;-54
2023/10/25 05:50:52;;;;;;;9.75;6.70;;;;;;;;;;4899458;29;20698;-53
2023/10/25 05:53:19;;;;;;;10.95;7.07;;;;;;;;;;4899046;29;20240;-56
2023/10/25 05:55:47;;;;;;;8.65;5.88;;;;;;;;;;4899522;29;20580;-53
2023/10/25 05:58:14;;;;;;;12.82;6.55;;;;;;;;;;4899396;29;20217;-55
2023/10/25 06:00:48;;;;;;;8.95;6.15;;;;;;;;;;4899510;29;20261;-54
2023/10/25 06:03:20;;;;;;;11.43;6.55;;;;;;;;;;4899400;29;20205;-55
2023/10/25 06:06:00;;;;;;;8.95;6.40;;;;;;;;;;4898273;29;20798;-54
2023/10/25 06:08:29;;;;;;;8.35;5.70;;;;;;;;;;4899340;29;20216;-55
2023/10/25 06:10:56;;;;;;;8.60;5.55;;;;;;;;;;4899294;29;20233;-55
2023/10/25 06:13:24;;;;;;;7.45;4.97;;;;;;;;;;4899216;29;20241;-56
2023/10/25 06:15:51;;;;;;;6.80;5.18;;;;;;;;;;4899167;29;20205;-55
2023/10/25 06:18:18;;;;;;;7.68;5.10;;;;;;;;;;4899237;29;20206;-54
2023/10/25 06:20:46;;;;;;;5.07;4.43;;;;;;;;;;4899140;29;20612;-55
2023/10/25 06:23:12;;;;;;;5.70;4.38;;;;;;;;;;4899182;29;20205;-53
2023/10/25 06:25:40;;;;;;;5.75;4.30;;;;;;;;;;4899031;29;20220;-54
2023/10/25 06:28:07;;;;;;;5.47;4.03;;;;;;;;;;4898923;29;20213;-54
2023/10/25 06:30:34;;;;;;;6.05;4.07;;;;;;;;;;4899186;29;20237;-52
2023/10/25 06:33:02;;;;;;;5.78;4.00;;;;;;;;;;4899003;29;20214;-55
2023/10/25 06:35:29;;;;;;;8.52;4.03;;;;;;;;;;4898950;29;20639;-55
2023/10/25 06:37:56;;;;;;;5.50;3.78;;;;;;;;;;4899200;29;20201;-55
2023/10/25 06:40:24;;;;;;;5.25;3.40;;;;;;;;;;4898709;29;20205;-54
2023/10/25 06:42:54;;;;;;;5.85;3.97;;;;;;;;;;4898640;29;20233;-55
2023/10/25 06:45:22;;;;;;;4.22;3.33;;;;;;;;;;4898611;29;20274;-54
2023/10/25 06:47:50;;;;;;;4.70;2.97;;;;;;;;;;4898732;29;20210;-54
2023/10/25 06:50:17;;;;;;;4.85;3.03;;;;;;;;;;4898561;29;20229;-56
2023/10/25 06:52:45;;;;;;;4.20;3.25;;;;;;;;;;4898606;29;20233;-54
2023/10/25 06:55:13;;;;;;;4.15;3.00;;;;;;;;;;4898351;29;20340;-56
2023/10/25 06:57:40;;;;;;;3.78;2.83;;;;;;;;;;4897594;29;20237;-57
2023/10/25 07:00:09;;;;;;;3.45;2.83;;;;;;;;;;4898505;29;20216;-56
2023/10/25 07:02:50;;;;;;;4.68;3.08;;;;;;;;;;4898422;29;20229;-56
2023/10/25 07:05:23;;;;;;;4.22;2.78;;;;;;;;;;4898301;29;20308;-55
2023/10/25 07:07:52;;;;;;;4.35;3.13;;;;;;;;;;4898273;29;20212;-54
2023/10/25 07:10:20;;;;;;;3.47;2.60;;;;;;;;;;4898034;29;20702;-56
2023/10/25 07:12:47;;;;;;;4.78;3.28;;;;;;;;;;4895763;29;20261;-53
2023/10/25 07:15:15;;;;;;;5.55;3.00;;;;;;;;;;4898331;29;20205;-55
2023/10/25 07:17:44;;;;;;;4.60;3.00;;;;;;;;;;4898077;29;20596;-56
2023/10/25 07:20:12;;;;;;;4.00;2.85;;;;;;;;;;4898036;29;20212;-56
2023/10/25 07:22:40;;;;;;;3.90;3.10;;;;;;;;;;4897815;29;20590;-57
2023/10/25 07:25:08;;;;;;;6.18;3.35;;;;;;;;;;4897885;29;20667;-55
2023/10/25 07:27:38;;;;;;;3.67;2.90;;;;;;;;;;4897957;29;20209;-54
2023/10/25 07:30:06;;;;;;;4.03;3.00;;;;;;;;;;4897862;29;20229;-54
2023/10/25 07:32:35;;;;;;;7.63;3.03;;;;;;;;;;4898158;29;20229;-54
2023/10/25 07:35:03;;;;;;;5.15;3.58;;;;;;;;;;4897579;29;20587;-55
2023/10/25 07:37:31;;;;;;;4.40;2.95;;;;;;;;;;4897803;29;20217;-55
2023/10/25 07:39:58;;;;;;;3.80;2.88;;;;;;;;;;4897604;29;20671;-56
2023/10/25 07:42:26;;;;;;;3.33;2.90;;;;;;;;;;4897562;29;20213;-55
2023/10/25 07:44:53;;;;;;;4.47;3.08;;;;;;;;;;4897519;29;20585;-54
2023/10/25 07:47:20;;;;;;;5.10;3.40;;;;;;;;;;4897513;29;20219;-55
2023/10/25 07:49:48;;;;;;;5.63;3.40;;;;;;;;;;4897441;29;20209;-56
2023/10/25 07:52:16;;;;;;;6.40;3.47;;;;;;;;;;4897493;29;20233;-56
2023/10/25 07:54:44;;;;;;;4.88;3.60;;;;;;;;;;4897483;29;20201;-53
2023/10/25 07:57:11;;;;;;;5.80;3.30;;;;;;;;;;4897416;29;20213;-56
2023/10/25 07:59:43;;;;;;;6.28;3.67;;;;;;;;;;4897450;29;20209;-55
2023/10/25 08:02:10;;;;;;;4.68;3.20;;;;;;;;;;4897157;29;20711;-58
2023/10/25 08:04:37;;;;;;;5.43;3.33;;;;;;;;;;4897496;29;20206;-57
2023/10/25 08:07:04;;;;;;;4.32;2.85;;;;;;;;;;4897315;29;20201;-57
2023/10/25 08:09:32;;;;;;;3.97;3.00;;;;;;;;;;4897165;29;20220;-55
2023/10/25 08:11:59;;;;;;;3.40;2.75;;;;;;;;;;4897326;29;20225;-56
2023/10/25 08:14:26;;;;;;;3.47;2.90;;;;;;;;;;4895868;29;20205;-56
2023/10/25 08:16:53;;;;;;;4.32;2.83;;;;;;;;;;4896926;29;20662;-54
2023/10/25 08:19:20;;;;;;;4.80;2.60;;;;;;;;;;4896968;29;20629;-55
2023/10/25 08:21:47;;;;;;;4.40;3.40;;;;;;;;;;4897054;29;20272;-56
2023/10/25 08:24:15;;;;;;;4.97;3.33;;;;;;;;;;4896951;29;20206;-54
2023/10/25 08:26:42;;;;;;;4.55;3.22;;;;;;;;;;4897042;29;20316;-54
2023/10/25 08:29:10;;;;;;;3.67;2.50;;;;;;;;;;4897119;29;20209;-55
2023/10/25 08:31:37;;;;;;;3.67;2.78;;;;;;;;;;4896605;29;20592;-56
2023/10/25 08:34:05;;;;;;;4.55;2.38;;;;;;;;;;4896695;29;20674;-56
2023/10/25 08:36:32;;;;;;;7.35;4.30;;;;;;;;;;4896881;29;20198;-54
2023/10/25 08:39:00;;;;;;;6.75;3.85;;;;;;;;;;4896655;29;20210;-56
2023/10/25 08:41:28;;;;;;;4.70;3.40;;;;;;;;;;4896737;29;20221;-55
2023/10/25 08:43:58;;;;;;;3.05;2.70;;;;;;;;;;4896471;29;20596;-56
2023/10/25 08:46:26;;;;;;;4.93;3.53;;;;;;;;;;4896732;29;20659;-56
2023/10/25 08:48:55;;;;;;;4.13;2.65;;;;;;;;;;4896718;29;20234;-58
2023/10/25 08:51:22;;;;;;;3.78;3.03;;;;;;;;;;4896487;29;20289;-55
2023/10/25 08:53:52;;;;;;;3.33;2.80;;;;;;;;;;4896491;29;20245;-55
2023/10/25 08:56:19;;;;;;;4.53;3.13;;;;;;;;;;4896484;29;20233;-55
2023/10/25 08:58:46;;;;;;;6.65;2.80;;;;;;;;;;4896917;29;20216;-56
2023/10/25 09:01:13;;;;;;;4.10;3.03;;;;;;;;;;4896650;29;20213;-55
2023/10/25 09:03:41;;;;;;;2.83;2.53;;;;;;;;;;4896512;29;20210;-56
2023/10/25 09:06:11;;;;;;;2.97;2.50;;;;;;;;;;4896510;29;20205;-54
2023/10/25 09:08:40;;;;;;;3.35;2.47;;;;;;;;;;4896718;29;20252;-56
2023/10/25 09:11:08;;;;;;;4.60;2.63;;;;;;;;;;4896229;29;20783;-57
2023/10/25 09:13:39;;;;;;;2.50;2.25;;;;;;;;;;4896471;29;20205;-55
2023/10/25 09:16:13;;;;;;;5.10;3.40;;;;;;;;;;4895288;29;20232;-56
2023/10/25 09:18:41;;;;;;;4.90;3.08;;;;;;;;;;4896471;29;20628;-56
2023/10/25 09:21:10;;;;;;;5.53;3.20;;;;;;;;;;4900285;29;20209;-55
2023/10/25 09:23:40;;;;;;;3.63;2.90;;;;;;;;;;4900414;29;20212;-57
2023/10/25 09:26:15;;;;;;;6.00;3.35;;;;;;;;;;4900433;29;20212;-55
2023/10/25 09:28:47;;;;;;;3.95;2.80;;;;;;;;;;4900036;29;20212;-55
2023/10/25 09:31:28;;;;;;;4.18;2.67;;;;;;;;;;4899923;29;20225;-56
2023/10/25 09:33:57;;;;;;;3.40;3.10;;;;;;;;;;4899816;29;20555;-56
2023/10/25 09:36:25;;;;;;;4.95;3.33;;;;;;;;;;4899788;29;20217;-55
2023/10/25 09:38:53;;;;;;;6.22;3.58;;;;;;;;;;4900058;29;20212;-55
2023/10/25 09:41:21;;;;;;;6.97;3.38;;;;;;;;;;4899885;29;20217;-56
2023/10/25 09:43:51;;;;;;;4.75;3.40;;;;;;;;;;4900185;29;20205;-57
2023/10/25 09:46:22;;;;;;;4.65;3.78;;;;;;;;;;4899627;29;20209;-56
2023/10/25 09:48:55;;;;;;;5.28;3.50;;;;;;;;;;4899568;29;20209;-56
2023/10/25 09:52:05;;;;;;;4.93;3.25;;;;;;;;;;4899725;29;20229;-56
2023/10/25 09:54:34;;;;;;;3.22;2.47;;;;;;;;;;4898506;29;20245;-56
2023/10/25 09:57:02;;;;;;;3.33;2.63;;;;;;;;;;4899851;29;20204;-57
2023/10/25 09:59:32;;;;;;;3.45;2.78;;;;;;;;;;4899483;29;20216;-56
2023/10/25 10:02:01;;;;;;;3.55;2.63;;;;;;;;;;4899592;29;20733;-56
2023/10/25 10:04:50;;;;;;;3.00;2.30;;;;;;;;;;4898587;29;20205;-53
2023/10/25 10:07:23;;;;;;;4.70;2.97;;;;;;;;;;4899320;29;20212;-57
2023/10/25 10:09:56;;;;;;;2.88;2.35;;;;;;;;;;4899378;29;20213;-57
2023/10/25 10:12:23;;;;;;;3.58;3.00;;;;;;;;;;4898168;29;20232;-56
2023/10/25 10:14:52;;;;;;;3.63;2.72;;;;;;;;;;4898135;29;20244;-57
2023/10/25 10:17:19;;;;;;;2.90;2.60;;;;;;;;;;4899204;29;20205;-56
2023/10/25 10:19:49;;;;;;;2.72;2.50;;;;;;;;;;4899172;29;20210;-55
2023/10/25 10:22:18;;;;;;;2.80;2.20;;;;;;;;;;4899024;29;20213;-55
2023/10/25 10:24:52;;;;;;;5.90;2.55;;;;;;;;;;4899585;29;20209;-55
2023/10/25 10:27:23;;;;;;;3.35;2.47;;;;;;;;;;4899123;29;20627;-56
2023/10/25 10:29:51;;;;;;;2.45;2.25;;;;;;;;;;4899054;29;20217;-56
2023/10/25 10:32:18;;;;;;;5.10;2.42;;;;;;;;;;4897472;29;20229;-56
2023/10/25 10:34:45;;;;;;;3.25;2.40;;;;;;;;;;4898941;29;20210;-56
2023/10/25 10:37:17;;;;;;;2.58;2.38;;;;;;;;;;4899106;29;20639;-56
2023/10/25 10:39:57;;;;;;;2.60;2.25;;;;;;;;;;4898804;29;20206;-55
2023/10/25 10:42:36;;;;;;;3.28;2.33;;;;;;;;;;4898662;29;20217;-54
2023/10/25 10:45:05;;;;;;;3.80;2.75;;;;;;;;;;4898861;29;20213;-56
2023/10/25 10:47:43;;;;;;;2.70;2.13;;;;;;;;;;4898906;29;20209;-55
2023/10/25 10:50:16;;;;;;;2.50;2.30;;;;;;;;;;4898841;29;20198;-55
2023/10/25 10:52:44;;;;;;;3.03;2.30;;;;;;;;;;4898530;29;20371;-56
2023/10/25 10:55:13;;;;;;;7.97;2.90;;;;;;;;;;4898420;29;20220;-55
2023/10/25 10:57:41;;;;;;;4.03;2.60;;;;;;;;;;4898821;29;20280;-55
2023/10/25 11:00:25;;;;;;;3.97;2.80;;;;;;;;;;4898528;29;20216;-55
2023/10/25 11:02:53;;;;;;;3.50;2.78;;;;;;;;;;4898251;29;20222;-56
2023/10/25 11:05:23;;;;;;;5.90;2.90;;;;;;;;;;4898302;29;20292;-54
2023/10/25 11:07:52;;;;;;;4.20;2.83;;;;;;;;;;4898212;29;20301;-56
2023/10/25 11:10:19;;;;;;;5.57;3.47;;;;;;;;;;4898304;29;20659;-54
2023/10/25 11:12:46;;;;;;;4.28;3.15;;;;;;;;;;4898107;29;20257;-56
2023/10/25 11:15:14;;;;;;;4.30;3.30;;;;;;;;;;4898212;29;20218;-55
2023/10/25 11:17:43;;;;;;;4.15;3.00;;;;;;;;;;4897090;29;20218;-56
2023/10/25 11:20:10;;;;;;;3.85;3.33;;;;;;;;;;4898451;29;20209;-56
2023/10/25 11:22:37;;;;;;;5.32;3.78;;;;;;;;;;4898168;29;20300;-54
2023/10/25 11:25:12;;;;;;;5.78;4.07;;;;;;;;;;4898014;29;20209;-54
2023/10/25 11:27:40;;;;;;;5.25;4.15;;;;;;;;;;4898214;29;20204;-56
2023/10/25 11:30:08;;;;;;;6.07;3.90;;;;;;;;;;4897979;29;20202;-56
2023/10/25 11:32:36;;;;;;;4.85;3.67;;;;;;;;;;4896548;29;20308;-55
2023/10/25 11:35:07;;;;;;;7.30;3.92;;;;;;;;;;4897982;29;20567;-56
2023/10/25 11:37:42;;;;;;;4.63;3.60;;;;;;;;;;4897901;29;20248;-55
2023/10/25 11:40:10;;;;;;;4.18;3.17;;;;;;;;;;4897744;29;20666;-57
2023/10/25 11:42:38;;;;;;;5.32;3.83;;;;;;;;;;4897148;29;20209;-55
2023/10/25 11:45:06;;;;;;;6.72;3.90;;;;;;;;;;4897575;29;20209;-57
2023/10/25 11:47:33;;;;;;;4.88;3.42;;;;;;;;;;4894290;29;20217;-56
2023/10/25 11:50:03;;;;;;;6.05;3.30;;;;;;;;;;4894550;29;20198;-56
2023/10/25 11:52:31;;;;;;;4.75;3.85;;;;;;;;;;4893979;29;20905;-56
2023/10/25 11:54:59;;;;;;;3.85;3.28;;;;;;;;;;4894504;29;20202;-57
2023/10/25 11:57:33;;;;;;;4.57;3.38;;;;;;;;;;4891740;29;20209;-55
2023/10/25 12:00:02;;;;;;;6.18;3.00;;;;;;;;;;4891939;29;20204;-57
2023/10/25 12:02:37;;;;;;;5.78;3.25;;;;;;;;;;4894307;29;20211;-52
2023/10/25 12:05:05;;;;;;;3.92;2.95;;;;;;;;;;4894259;29;20215;-58
2023/10/25 12:07:32;;;;;;;4.88;3.40;;;;;;;;;;4894048;29;20212;-57
2023/10/25 12:09:59;;;;;;;3.65;3.00;;;;;;;;;;4894115;29;20201;-56
2023/10/25 12:12:27;;;;;;;3.35;2.80;;;;;;;;;;4893966;29;20217;-56
2023/10/25 12:14:54;;;;;;;5.32;3.00;;;;;;;;;;4894117;29;20201;-56
2023/10/25 12:17:21;;;;;;;4.85;3.30;;;;;;;;;;4891554;29;20228;-56
2023/10/25 12:19:51;;;;;;;3.40;3.05;;;;;;;;;;4893877;29;20559;-55
2023/10/25 12:22:18;;;;;;;3.55;2.83;;;;;;;;;;4893982;29;20234;-56
2023/10/25 12:24:49;;;;;;;3.42;2.97;;;;;;;;;;4894597;29;20671;-59
2023/10/25 12:27:16;;;;;;;2.78;2.45;;;;;;;;;;4896813;29;20323;-57
2023/10/25 12:29:44;;;;;;;3.55;2.65;;;;;;;;;;4891518;29;20229;-57
2023/10/25 12:32:13;;;;;;;3.35;2.78;;;;;;;;;;4895357;29;20239;-59
2023/10/25 12:34:41;;;;;;;3.40;2.95;;;;;;;;;;4895105;29;20347;-57
2023/10/25 12:37:08;;;;;;;13.90;5.18;;;;;;;;;;4892947;29;20223;-56
2023/10/25 12:39:36;;;;;;;6.30;3.65;;;;;;;;;;4893147;29;20241;-55
2023/10/25 12:42:03;;;;;;;3.80;2.80;;;;;;;;;;4893026;29;20243;-57
2023/10/25 12:44:31;;;;;;;3.78;2.47;;;;;;;;;;4893871;29;20229;-58
2023/10/25 12:46:58;;;;;;;2.97;2.63;;;;;;;;;;4895533;29;20235;-58
2023/10/25 12:49:25;;;;;;;3.17;2.75;;;;;;;;;;4895837;29;20224;-56
2023/10/25 12:51:52;;;;;;;3.13;1.90;;;;;;;;;;4894420;29;20241;-55
2023/10/25 12:54:20;;;;;;;2.75;1.63;;;;;;;;;;4894967;29;20248;-57
2023/10/25 12:56:48;;;;;;;3.50;2.53;;;;;;;;;;4895481;29;20232;-56
2023/10/25 12:59:16;;;;;;;18.45;10.57;;;;;;;;;;4895066;29;20233;-55
2023/10/25 13:01:43;;;;;;;105.65;52.58;;;;;;;;;;4895458;29;20233;-58
2023/10/25 13:04:19;;;;;;;415.95;227.05;;;;;;;;;;4895857;29;20248;-56
2023/10/25 13:06:47;;;;;;;171.57;105.63;;;;;;;;;;4893396;29;20213;-53
2023/10/25 13:09:16;;;;;;;29.25;23.13;;;;;;;;;;4895447;29;20253;-57
2023/10/25 13:11:43;;;;;;;12.63;9.73;;;;;;;;;;4895380;29;20224;-53
2023/10/25 13:14:12;;;;;;;3.60;3.00;;;;;;;;;;4894931;29;20293;-54
2023/10/25 13:16:39;;;;;;;5.85;4.78;;;;;;;;;;4895839;29;20233;-55
2023/10/25 13:19:06;;;;;;;4.60;3.15;;;;;;;;;;4895803;29;20230;-54
2023/10/25 13:21:33;;;;;;;5.00;3.53;;;;;;;;;;4895675;29;20616;-55
2023/10/25 13:24:01;;;;;;;6.55;3.83;;;;;;;;;;4895680;29;20237;-54
2023/10/25 13:26:28;;;;;;;5.35;4.15;;;;;;;;;;4895827;29;20574;-57
2023/10/25 13:28:59;;;;;;;6.75;4.90;;;;;;;;;;4894208;29;20236;-55
2023/10/25 13:31:27;;;;;;;7.10;5.05;;;;;;;;;;4894598;29;20308;-55
2023/10/25 13:33:55;;;;;;;11.43;7.90;;;;;;;;;;4895463;29;20244;-57
2023/10/25 13:36:22;;;;;;;10.73;6.80;;;;;;;;;;4896047;29;20585;-55
2023/10/25 13:38:49;;;;;;;11.93;8.38;;;;;;;;;;4895827;29;20566;-56
2023/10/25 13:41:19;;;;;;;10.35;7.72;;;;;;;;;;4895859;29;20320;-56
2023/10/25 13:43:47;;;;;;;15.90;8.95;;;;;;;;;;4895412;29;20233;-55
2023/10/25 13:46:14;;;;;;;15.10;9.07;;;;;;;;;;4878370;29;20598;-56
2023/10/25 13:48:42;;;;;;;16.33;8.63;;;;;;;;;;4882110;29;20226;-57
2023/10/25 13:51:10;;;;;;;13.93;9.02;;;;;;;;;;4894134;29;20217;-58
2023/10/25 13:53:37;;;;;;;12.88;8.02;;;;;;;;;;4892570;29;20249;-58
2023/10/25 13:56:04;;;;;;;14.27;7.75;;;;;;;;;;4895301;29;20272;-57
2023/10/25 13:58:33;;;;;;;14.15;8.85;;;;;;;;;;4893842;29;20347;-56
2023/10/25 14:01:03;;;;;;;17.23;10.25;;;;;;;;;;4894859;29;20221;-57
2023/10/25 14:03:30;;;;;;;20.05;11.60;;;;;;;;;;4895163;29;20726;-56
2023/10/25 14:06:03;;;;;;;19.25;11.30;;;;;;;;;;4893810;29;20785;-56
2023/10/25 14:08:31;;;;;;;23.58;11.75;;;;;;;;;;4896519;29;20717;-56
2023/10/25 14:10:58;;;;;;;19.90;11.15;;;;;;;;;;4898029;29;20223;-54
2023/10/25 14:13:26;;;;;;;18.00;10.27;;;;;;;;;;4892182;29;20233;-58
2023/10/25 14:16:08;;;;;;;14.27;8.73;;;;;;;;;;4898020;29;20672;-57
2023/10/25 14:18:36;;;;;;;16.25;8.13;;;;;;;;;;4896282;29;20225;-57
2023/10/25 14:21:10;;;;;;;14.20;7.53;;;;;;;;;;4895159;29;20774;-57
2023/10/25 14:23:43;;;;;;;16.33;7.63;;;;;;;;;;4897532;29;20221;-57
2023/10/25 14:26:11;;;;;;;9.60;6.32;;;;;;;;;;4897454;29;20245;-57
2023/10/25 14:28:38;;;;;;;11.73;6.78;;;;;;;;;;4896874;29;20225;-58
2023/10/25 14:31:05;;;;;;;12.13;6.15;;;;;;;;;;4897269;29;20213;-57
2023/10/25 14:33:33;;;;;;;7.95;5.22;;;;;;;;;;4897191;29;20237;-57
2023/10/25 14:36:00;;;;;;;10.57;5.32;;;;;;;;;;4897059;29;20221;-58
2023/10/25 14:38:28;;;;;;;6.22;4.43;;;;;;;;;;4897066;29;20313;-58
2023/10/25 14:40:56;;;;;;;9.45;5.05;;;;;;;;;;4897445;29;20233;-59
2023/10/25 14:43:23;;;;;;;6.50;4.00;;;;;;;;;;4896945;29;20750;-58